Aérodrome :
LOGIN :

S'inscrire | Disclaimer

   EN    FR    IT 

 










Légende :    VFR   VFR Marginal   IFR   IFR Intensif   IFR Très Intensif
Visi : 
Plafond : 
>= 8 km
>= 3000ft
5 à 8 km
1000 à 3000 ft
1500m à 5 km
500 à 1000 ft
800 à 1500m
200 à 500 ft
< 800m
< 200 ft
Symboles :   Orages  Brouillard  Fortes neiges  Fortes précipitations  Vent > 20 kt
SIGMETs :   Divers  Orages  Givrage  Turbulence  Onde Orograph.  Cendres Volcan.







- Altitude de l'aérodrome : 39 ft
- Code IATA : TRS


LIPQ - Friuli Venezia Giulia Apt. Trieste

DERNIER METAR :
  • 180150Z AUTO 09003KT 9999 VV002 12/11 Q1021

METARs EXPIRÉS :
  • 180120Z AUTO 09003KT 0150 R09/1300U FG VV002 12/12 Q1021
  • 180050Z AUTO 09004KT 0050 R09/0400N FG VV002 12/12 Q1021
  • 180020Z AUTO 11002KT 0150 R09/0650U FG VV002 12/11 Q1022
  • 172350Z AUTO VRB01KT 0050 R09/0275N FG VV002 12/12 Q1022
  • 172320Z AUTO 35002KT 0050 R09/0350N FG VV003 12/11 Q1022

TAF TAF LIPQ
Valide du 18 à 00h jusqu'au 19 à 00h UTC


172300Z 1800/1824 VRB05KT 0200 FG BKN005
BECMG 1807/1810 CAVOK
BECMG 1816/1818 2000 BR
BECMG 1820/1822 0600 FG BKN007
Pas de NOTAMs connus pour ce terrain.



MET'MAP, la Météo Aéronautique d'un coup d'oeil ! - Copyright ORBIFLY Décembre 2007 - Disclaimer

ORBIFLY MET'MAP TEAM :

Programmation & Développement : Alexandra Zaïnal
Conception & Développement : Baudouin d'Aumeries
Co-Programmation & Développement : Marc-Olivier Méhu
Soutien technique & logistique : Manuel Goepfert

Contact : metmap@orbifly.com




SOURCES & CREDITS :

   NOAA